Time;durP1;ratioP1;P1;durP2;ratioP2;P2;SDS_P1;SDS_P2;PMS_P1;PMS_P2;Temp;Humidity;BMP_temperature;BMP_pressure;BME280_temperature;BME280_humidity;BME280_pressure;Samples;Min_cycle;Max_cycle;Signal;HPM_P1;HPM_P2
2023/07/10 00:00:23;;;;;;;6.70;4.90;;;;;;;23.25;nan;101534.91;4970840;28;20482;-46
2023/07/10 00:02:51;;;;;;;10.38;6.07;;;;;;;23.26;nan;101533.91;4972901;28;20050;-47
2023/07/10 00:05:19;;;;;;;6.82;4.95;;;;;;;23.28;nan;101530.09;4970946;28;20050;-46
2023/07/10 00:07:46;;;;;;;9.07;5.93;;;;;;;23.31;nan;101538.91;4972524;28;20356;-47
2023/07/10 00:10:15;;;;;;;8.27;4.95;;;;;;;23.35;nan;101534.97;4973632;28;20074;-46
2023/07/10 00:12:43;;;;;;;8.65;5.35;;;;;;;23.35;nan;101534.97;4968398;28;20050;-47
2023/07/10 00:15:15;;;;;;;9.00;5.78;;;;;;;23.26;nan;101547.41;4973030;28;20062;-47
2023/07/10 00:17:45;;;;;;;9.68;5.40;;;;;;;23.24;nan;101552.91;4958238;28;20125;-46
2023/07/10 00:20:14;;;;;;;9.80;5.18;;;;;;;23.18;nan;101561.56;4970329;28;20047;-46
2023/07/10 00:22:41;;;;;;;11.20;5.97;;;;;;;23.06;nan;101574.22;4961582;28;20051;-47
2023/07/10 00:25:08;;;;;;;10.85;5.47;;;;;;;23.02;nan;101588.94;4971087;28;20419;-47
2023/07/10 00:27:35;;;;;;;10.55;5.60;;;;;;;23.16;nan;101595.88;4972864;28;20051;-46
2023/07/10 00:30:03;;;;;;;11.10;5.68;;;;;;;23.30;nan;101592.00;4970668;28;20444;-46
2023/07/10 00:32:30;;;;;;;10.73;5.28;;;;;;;23.32;nan;101600.81;4972278;28;20380;-46
2023/07/10 00:34:57;;;;;;;9.05;5.38;;;;;;;23.31;nan;101625.22;4984651;28;20055;-46
2023/07/10 00:37:23;;;;;;;8.80;4.97;;;;;;;23.38;nan;101639.91;4973078;28;20161;-47
2023/07/10 00:39:50;;;;;;;8.68;4.60;;;;;;;23.51;nan;101643.25;4973460;28;20054;-47
2023/07/10 00:42:20;;;;;;;9.23;5.55;;;;;;;23.58;nan;101639.00;4970251;28;20058;-46
2023/07/10 00:44:53;;;;;;;9.38;4.72;;;;;;;23.69;nan;101642.63;4978353;28;20058;-47
2023/07/10 00:47:35;;;;;;;12.05;5.55;;;;;;;23.66;nan;101640.19;4977027;28;20059;-47
2023/07/10 00:50:20;;;;;;;10.57;4.97;;;;;;;23.61;nan;101649.53;4973438;28;20059;-46
2023/07/10 00:52:52;;;;;;;10.50;5.75;;;;;;;23.58;nan;101633.59;4973880;28;20057;-47
2023/07/10 00:55:38;;;;;;;12.93;4.63;;;;;;;23.66;nan;101615.91;4972325;28;20062;-46
2023/07/10 00:58:24;;;;;;;9.05;4.72;;;;;;;23.66;nan;101618.63;4970352;28;20108;-47
2023/07/10 01:01:13;;;;;;;8.07;5.32;;;;;;;23.53;nan;101625.06;4959845;28;20084;-47
2023/07/10 01:03:41;;;;;;;9.15;5.07;;;;;;;23.54;nan;101625.91;4969327;28;20116;-46
2023/07/10 01:06:21;;;;;;;11.15;5.00;;;;;;;23.55;nan;101612.28;4972835;28;20046;-47
2023/07/10 01:09:00;;;;;;;9.10;5.03;;;;;;;23.55;nan;101609.59;4973496;28;20058;-46
2023/07/10 01:11:27;;;;;;;8.65;5.05;;;;;;;23.54;nan;101605.19;4974608;28;20064;-47
2023/07/10 01:13:56;;;;;;;7.68;4.60;;;;;;;23.56;nan;101597.81;4972924;28;20055;-46
2023/07/10 01:16:25;;;;;;;7.07;4.80;;;;;;;23.60;nan;101596.56;4970141;28;20055;-46
2023/07/10 01:18:52;;;;;;;8.95;5.70;;;;;;;23.60;nan;101596.56;4972502;28;20126;-47
2023/07/10 01:21:31;;;;;;;6.97;4.53;;;;;;;23.59;nan;101592.16;4970113;28;20050;-46
2023/07/10 01:24:04;;;;;;;8.30;4.85;;;;;;;23.53;nan;101573.81;4973750;28;20058;-47
2023/07/10 01:26:35;;;;;;;6.00;4.50;;;;;;;23.55;nan;101557.47;4968773;28;20058;-46
2023/07/10 01:29:02;;;;;;;7.10;5.03;;;;;;;23.45;nan;101555.59;4971493;28;20059;-46
2023/07/10 01:31:30;;;;;;;12.73;5.38;;;;;;;23.17;nan;101540.97;4973547;28;20410;-46
2023/07/10 01:34:01;;;;;;;9.75;4.97;;;;;;;22.71;nan;101536.81;4978062;28;20055;-47
2023/07/10 01:36:37;;;;;;;11.80;4.80;;;;;;;22.35;nan;101530.84;4972726;28;20066;-47
2023/07/10 01:39:09;;;;;;;8.35;5.40;;;;;;;22.27;nan;101523.38;4975760;28;20438;-46
2023/07/10 01:41:39;;;;;;;10.15;5.00;;;;;;;22.35;nan;101525.47;4976521;28;20063;-46
2023/07/10 01:44:27;;;;;;;7.45;4.85;;;;;;;22.30;nan;101514.22;4973618;28;20054;-46
2023/07/10 01:46:55;;;;;;;11.20;5.28;;;;;;;22.17;nan;101507.13;4975094;28;20051;-46
2023/07/10 01:49:26;;;;;;;10.30;5.40;;;;;;;22.11;nan;101494.16;4973812;28;20107;-46
2023/07/10 01:51:54;;;;;;;12.27;5.60;;;;;;;22.12;nan;101490.50;4971180;28;20367;-47
2023/07/10 01:54:21;;;;;;;9.18;5.32;;;;;;;22.13;nan;101484.16;4979398;28;20050;-46
2023/07/10 01:56:47;;;;;;;7.72;4.55;;;;;;;22.16;nan;101483.84;4978456;28;20047;-46
2023/07/10 01:59:14;;;;;;;8.68;5.55;;;;;;;22.30;nan;101481.91;4969823;28;20065;-46
2023/07/10 02:01:41;;;;;;;12.40;5.03;;;;;;;22.32;nan;101474.53;4970399;28;20074;-47
2023/07/10 02:04:08;;;;;;;9.13;4.68;;;;;;;22.36;nan;101478.69;4976004;28;20058;-46
2023/07/10 02:06:37;;;;;;;9.18;4.72;;;;;;;22.31;nan;101467.44;4971314;28;20136;-46
2023/07/10 02:09:04;;;;;;;9.30;5.03;;;;;;;22.34;nan;101469.88;4974720;28;20051;-46
2023/07/10 02:11:31;;;;;;;10.02;5.18;;;;;;;22.40;nan;101463.97;4975667;28;20043;-46
2023/07/10 02:13:57;;;;;;;5.70;4.35;;;;;;;22.40;nan;101458.59;4972644;28;20054;-46
2023/07/10 02:16:24;;;;;;;8.02;4.88;;;;;;;22.44;nan;101459.19;4975874;28;20406;-47
2023/07/10 02:18:51;;;;;;;6.53;4.68;;;;;;;22.44;nan;101460.03;4972728;28;20454;-46
2023/07/10 02:21:18;;;;;;;16.40;5.25;;;;;;;22.47;nan;101459.78;4975965;28;20047;-46
2023/07/10 02:23:47;;;;;;;8.77;4.88;;;;;;;22.39;nan;101456.88;4973465;28;20062;-47
2023/07/10 02:26:16;;;;;;;9.25;5.20;;;;;;;22.31;nan;101449.47;4974367;28;20530;-46
2023/07/10 02:28:43;;;;;;;7.95;5.70;;;;;;;22.26;nan;101450.78;4975887;28;20069;-47
2023/07/10 02:31:10;;;;;;;15.40;6.00;;;;;;;22.26;nan;101458.88;4973659;28;20061;-46
2023/07/10 02:33:36;;;;;;;8.63;5.45;;;;;;;22.22;nan;101457.44;4974917;28;20062;-46
2023/07/10 02:36:04;;;;;;;11.93;5.28;;;;;;;22.18;nan;101459.50;4972053;28;20058;-46
2023/07/10 02:38:30;;;;;;;9.60;5.30;;;;;;;22.25;nan;101457.16;4975366;28;20705;-47
2023/07/10 02:40:58;;;;;;;8.05;5.43;;;;;;;22.30;nan;101444.22;4972827;28;20568;-46
2023/07/10 02:43:25;;;;;;;9.05;5.95;;;;;;;22.30;nan;101442.38;4973228;28;20058;-46
2023/07/10 02:45:51;;;;;;;8.68;5.25;;;;;;;22.27;nan;101441.75;4974265;28;20137;-47
2023/07/10 02:48:18;;;;;;;7.65;4.72;;;;;;;22.22;nan;101438.59;4971871;28;20109;-46
2023/07/10 02:50:45;;;;;;;9.18;5.55;;;;;;;22.19;nan;101437.84;4974579;28;20046;-46
2023/07/10 02:53:11;;;;;;;7.95;5.03;;;;;;;22.14;nan;101415.00;4971244;28;20499;-47
2023/07/10 02:55:40;;;;;;;11.35;5.47;;;;;;;22.10;nan;101410.84;4981832;28;20050;-46
2023/07/10 02:58:06;;;;;;;7.10;5.05;;;;;;;22.02;nan;101403.44;4978030;28;20550;-46
2023/07/10 03:00:33;;;;;;;7.95;5.28;;;;;;;21.92;nan;101399.78;4973209;28;20047;-47
2023/07/10 03:03:00;;;;;;;12.10;4.97;;;;;;;21.85;nan;101403.97;4974895;28;20058;-46
2023/07/10 03:05:27;;;;;;;7.95;5.57;;;;;;;21.74;nan;101408.41;4968108;28;20061;-46
2023/07/10 03:07:53;;;;;;;9.18;5.30;;;;;;;21.69;nan;101405.22;4973671;28;20054;-46
2023/07/10 03:10:21;;;;;;;9.50;5.93;;;;;;;21.68;nan;101400.00;4968923;28;20046;-47
2023/07/10 03:12:47;;;;;;;9.88;5.35;;;;;;;21.73;nan;101385.19;4973424;28;20443;-46
2023/07/10 03:15:14;;;;;;;12.73;6.32;;;;;;;21.76;nan;101381.41;4973198;28;20055;-46
2023/07/10 03:17:41;;;;;;;7.85;4.88;;;;;;;21.81;nan;101380.00;4970707;28;20059;-47
2023/07/10 03:20:09;;;;;;;10.32;5.72;;;;;;;21.86;nan;101381.47;4974686;28;20081;-46
2023/07/10 03:22:36;;;;;;;9.55;5.03;;;;;;;21.85;nan;101383.28;4971791;28;20447;-47
2023/07/10 03:25:03;;;;;;;7.03;4.95;;;;;;;21.88;nan;101382.19;4974838;28;20062;-47
2023/07/10 03:27:29;;;;;;;8.35;5.82;;;;;;;21.94;nan;101382.53;4975934;28;20046;-46
2023/07/10 03:29:56;;;;;;;6.97;5.13;;;;;;;21.99;nan;101384.84;4997138;28;20133;-46
2023/07/10 03:32:23;;;;;;;11.57;6.72;;;;;;;22.03;nan;101391.66;4991799;28;20059;-46
2023/07/10 03:34:49;;;;;;;11.30;6.20;;;;;;;22.00;nan;101389.22;4971396;28;20058;-46
2023/07/10 03:37:16;;;;;;;10.63;5.95;;;;;;;21.95;nan;101384.25;4969820;28;20051;-46
2023/07/10 03:39:43;;;;;;;8.50;5.28;;;;;;;21.98;nan;101385.81;4955261;28;20109;-46
2023/07/10 03:42:10;;;;;;;8.30;5.68;;;;;;;21.96;nan;101385.09;4972870;28;20058;-46
2023/07/10 03:44:36;;;;;;;9.18;5.65;;;;;;;21.92;nan;101376.44;4974272;28;20051;-46
2023/07/10 03:47:03;;;;;;;8.57;5.00;;;;;;;21.93;nan;101378.13;4970042;28;20050;-46
2023/07/10 03:49:30;;;;;;;9.38;5.57;;;;;;;21.94;nan;101370.94;4976523;28;20058;-46
2023/07/10 03:51:58;;;;;;;9.18;5.25;;;;;;;21.90;nan;101373.00;4983239;28;20086;-46
2023/07/10 03:54:25;;;;;;;10.77;6.18;;;;;;;21.88;nan;101366.91;4978537;28;20074;-46
2023/07/10 03:56:51;;;;;;;8.30;5.63;;;;;;;21.85;nan;101369.00;4973212;28;20054;-46
2023/07/10 03:59:18;;;;;;;11.93;5.70;;;;;;;21.82;nan;101362.03;4972956;28;20062;-47
2023/07/10 04:01:45;;;;;;;7.95;5.65;;;;;;;21.77;nan;101359.75;4974009;28;20046;-47
2023/07/10 04:04:11;;;;;;;14.13;6.60;;;;;;;21.84;nan;101353.81;4965643;28;20051;-47
2023/07/10 04:06:38;;;;;;;10.43;4.80;;;;;;;21.85;nan;101347.47;4972655;28;20047;-47
2023/07/10 04:09:04;;;;;;;12.10;5.65;;;;;;;21.90;nan;101342.56;4963017;28;20055;-46
2023/07/10 04:11:32;;;;;;;9.07;5.80;;;;;;;21.94;nan;101336.78;4972769;28;20050;-46
2023/07/10 04:13:59;;;;;;;9.45;5.72;;;;;;;22.01;nan;101339.81;4979816;28;20050;-46
2023/07/10 04:16:27;;;;;;;8.45;5.13;;;;;;;22.11;nan;101334.50;4975870;28;20424;-46
2023/07/10 04:18:54;;;;;;;10.38;6.03;;;;;;;22.18;nan;101330.28;4974022;28;20050;-46
2023/07/10 04:21:27;;;;;;;7.72;5.22;;;;;;;22.12;nan;101325.44;4970432;28;20061;-47
2023/07/10 04:23:54;;;;;;;10.15;5.55;;;;;;;22.23;nan;101319.13;4972656;28;20093;-46
2023/07/10 04:26:23;;;;;;;7.10;5.68;;;;;;;22.40;nan;101323.94;4969023;28;20054;-46
2023/07/10 04:28:51;;;;;;;14.80;6.05;;;;;;;22.53;nan;101327.25;4972921;28;20622;-46
2023/07/10 04:31:19;;;;;;;11.85;5.70;;;;;;;22.58;nan;101332.25;4973826;28;20039;-46
2023/07/10 04:33:46;;;;;;;9.15;5.35;;;;;;;22.53;nan;101350.66;4970758;28;20064;-47
2023/07/10 04:36:13;;;;;;;9.50;5.05;;;;;;;22.65;nan;101356.81;4973376;28;20062;-46
2023/07/10 04:38:39;;;;;;;8.90;5.00;;;;;;;22.69;nan;101355.53;4975813;28;20062;-46
2023/07/10 04:41:10;;;;;;;14.48;5.53;;;;;;;22.65;nan;101337.97;4975910;28;20065;-46
2023/07/10 04:43:37;;;;;;;12.13;5.22;;;;;;;22.70;nan;101336.56;4967364;28;20105;-47
2023/07/10 04:46:06;;;;;;;10.85;5.82;;;;;;;22.48;nan;101345.66;4961565;28;20066;-46
2023/07/10 04:48:33;;;;;;;8.93;5.18;;;;;;;22.23;nan;101359.50;4966058;28;20061;-46
2023/07/10 04:51:03;;;;;;;10.05;5.10;;;;;;;22.10;nan;101373.16;4971884;28;20047;-46
2023/07/10 04:53:31;;;;;;;13.43;5.38;;;;;;;21.57;nan;101379.38;4959436;28;20117;-46
2023/07/10 04:56:01;;;;;;;10.52;5.70;;;;;;;20.88;nan;101380.41;4966226;28;20054;-46
2023/07/10 04:58:31;;;;;;;10.10;5.60;;;;;;;20.45;nan;101375.66;4973345;28;20140;-46
2023/07/10 05:01:00;;;;;;;9.85;5.75;;;;;;;20.24;nan;101376.38;4976991;28;20050;-46
2023/07/10 05:03:26;;;;;;;15.02;7.45;;;;;;;19.98;nan;101440.91;4987680;28;20136;-47
2023/07/10 05:05:55;;;;;;;24.02;6.53;;;;;;;19.81;nan;101602.22;4971489;28;20047;-46
2023/07/10 05:08:23;;;;;;;14.70;6.13;;;;;;;19.95;nan;101614.66;4973034;28;20058;-46
2023/07/10 05:10:54;;;;;;;8.30;6.22;;;;;;;20.29;nan;101516.44;4973392;28;20046;-46
2023/07/10 05:13:23;;;;;;;16.75;7.35;;;;;;;20.24;nan;101593.78;4975606;28;20669;-46
2023/07/10 05:15:49;;;;;;;9.95;6.13;;;;;;;19.96;nan;101616.41;4977586;28;20046;-46
2023/07/10 05:18:16;;;;;;;12.60;7.00;;;;;;;19.72;nan;101597.50;4974906;28;20051;-46
2023/07/10 05:20:44;;;;;;;12.77;6.45;;;;;;;19.37;nan;101574.00;4977411;28;20053;-46
2023/07/10 05:23:11;;;;;;;16.45;7.45;;;;;;;19.13;nan;101584.63;4977383;28;20065;-48
2023/07/10 05:25:38;;;;;;;10.15;6.85;;;;;;;19.06;nan;101613.63;4967764;28;20463;-46
2023/07/10 05:28:05;;;;;;;15.27;8.77;;;;;;;19.12;nan;101591.78;4977293;28;20061;-46
2023/07/10 05:30:31;;;;;;;11.73;7.40;;;;;;;19.20;nan;101541.22;4977629;28;20075;-46
2023/07/10 05:32:58;;;;;;;12.73;7.35;;;;;;;19.14;nan;101517.53;4974262;28;20062;-47
2023/07/10 05:35:25;;;;;;;16.40;7.10;;;;;;;19.30;nan;101521.81;4975102;28;20054;-46
2023/07/10 05:37:51;;;;;;;13.98;7.60;;;;;;;19.14;nan;101527.38;4963206;28;20059;-46
2023/07/10 05:40:18;;;;;;;22.05;9.13;;;;;;;19.07;nan;101532.31;4976986;28;20059;-46
2023/07/10 05:42:44;;;;;;;13.80;8.30;;;;;;;19.09;nan;101519.66;4973858;28;20058;-46
2023/07/10 05:45:11;;;;;;;15.38;8.80;;;;;;;19.09;nan;101508.94;4978974;28;20078;-46
2023/07/10 05:47:37;;;;;;;13.77;8.82;;;;;;;18.97;nan;101507.97;4979237;28;20054;-47
2023/07/10 05:50:05;;;;;;;20.08;8.05;;;;;;;18.76;nan;101502.25;4977452;28;20058;-49
2023/07/10 05:52:31;;;;;;;18.85;8.77;;;;;;;18.73;nan;101501.59;4976766;28;20042;-46
2023/07/10 05:54:58;;;;;;;12.68;8.30;;;;;;;18.79;nan;101477.94;4973304;28;20137;-46
2023/07/10 05:57:24;;;;;;;22.35;9.88;;;;;;;18.83;nan;101476.81;4975514;28;20058;-46
2023/07/10 05:59:51;;;;;;;19.05;10.48;;;;;;;18.78;nan;101456.63;4976222;28;20054;-46
2023/07/10 06:02:18;;;;;;;20.90;9.25;;;;;;;18.71;nan;101437.44;4987007;28;20494;-46
2023/07/10 06:04:44;;;;;;;22.25;10.38;;;;;;;18.76;nan;101437.97;4975608;28;20183;-46
2023/07/10 06:07:11;;;;;;;19.38;10.57;;;;;;;18.82;nan;101458.97;4973608;28;20730;-46
2023/07/10 06:09:37;;;;;;;16.30;10.13;;;;;;;18.66;nan;101502.00;4976603;28;20062;-49
2023/07/10 06:12:05;;;;;;;16.65;11.13;;;;;;;18.70;nan;101481.25;4974432;28;20054;-46
2023/07/10 06:14:31;;;;;;;21.27;11.05;;;;;;;18.71;nan;101473.09;4976166;28;20054;-46
2023/07/10 06:16:58;;;;;;;15.32;9.07;;;;;;;18.88;nan;101474.66;4975230;28;20055;-46
2023/07/10 06:19:25;;;;;;;18.90;10.40;;;;;;;19.23;nan;101468.66;4973509;28;20102;-46
2023/07/10 06:22:04;;;;;;;14.18;10.68;;;;;;;19.31;nan;101464.59;4976005;28;20051;-46
2023/07/10 06:24:31;;;;;;;18.95;10.10;;;;;;;19.42;nan;101460.16;4984533;28;20048;-46
2023/07/10 06:26:57;;;;;;;12.20;9.27;;;;;;;19.46;nan;101463.47;4975099;28;20058;-46
2023/07/10 06:29:24;;;;;;;20.25;11.70;;;;;;;19.65;nan;101462.13;4975914;28;20062;-46
2023/07/10 06:31:52;;;;;;;15.82;9.25;;;;;;;19.82;nan;101464.47;4972741;28;20042;-46
2023/07/10 06:34:18;;;;;;;22.67;10.70;;;;;;;20.02;nan;101459.47;4976244;28;20076;-46
2023/07/10 06:36:45;;;;;;;16.30;10.40;;;;;;;20.13;nan;101448.78;4976259;28;20058;-46
2023/07/10 06:39:11;;;;;;;16.00;9.82;;;;;;;20.16;nan;101451.25;4976263;28;20376;-46
2023/07/10 06:41:38;;;;;;;17.65;9.55;;;;;;;20.21;nan;101443.69;4969814;28;20067;-46
2023/07/10 06:44:05;;;;;;;16.88;9.50;;;;;;;20.29;nan;101446.66;4976069;28;20055;-46
2023/07/10 06:46:31;;;;;;;15.32;9.57;;;;;;;20.48;nan;101448.81;4975940;28;20051;-47
2023/07/10 06:48:58;;;;;;;17.45;9.63;;;;;;;20.56;nan;101437.44;4973877;28;20054;-46
2023/07/10 06:51:25;;;;;;;16.83;8.70;;;;;;;20.66;nan;101443.00;4975597;28;20203;-46
2023/07/10 06:53:51;;;;;;;19.80;10.23;;;;;;;20.70;nan;101456.06;4971449;28;20054;-46
2023/07/10 06:56:18;;;;;;;14.52;8.55;;;;;;;20.53;nan;101451.09;4977983;28;20415;-46
2023/07/10 06:58:44;;;;;;;13.60;9.07;;;;;;;20.46;nan;101460.63;4976341;28;20054;-46
2023/07/10 07:01:11;;;;;;;11.35;8.13;;;;;;;20.24;nan;101464.94;4975486;28;20388;-46
2023/07/10 07:03:40;;;;;;;17.70;9.73;;;;;;;20.12;nan;101468.53;4975418;28;20463;-47
2023/07/10 07:06:07;;;;;;;14.50;8.70;;;;;;;20.14;nan;101463.94;4974898;28;20050;-46
2023/07/10 07:08:34;;;;;;;13.73;9.50;;;;;;;20.15;nan;101465.63;4966674;28;20055;-46
2023/07/10 07:11:01;;;;;;;21.05;9.65;;;;;;;20.16;nan;101468.19;4964029;28;20066;-46
2023/07/10 07:13:28;;;;;;;15.27;8.88;;;;;;;20.35;nan;101473.03;4968861;28;20059;-46
2023/07/10 07:15:56;;;;;;;13.80;9.40;;;;;;;20.34;nan;101452.53;4971580;28;20058;-46
2023/07/10 07:18:24;;;;;;;13.20;8.43;;;;;;;20.49;nan;101446.97;4974910;28;20054;-46
2023/07/10 07:20:54;;;;;;;12.13;8.68;;;;;;;20.65;nan;101439.47;4978796;28;20058;-46
2023/07/10 07:23:21;;;;;;;14.07;9.50;;;;;;;20.48;nan;101426.44;4974371;28;20066;-46
2023/07/10 07:25:47;;;;;;;11.13;8.73;;;;;;;20.55;nan;101427.69;4990833;28;20058;-46
2023/07/10 07:28:14;;;;;;;13.88;8.68;;;;;;;20.63;nan;101433.38;4979642;28;20061;-46
2023/07/10 07:30:47;;;;;;;14.45;8.68;;;;;;;20.79;nan;101421.41;4968819;28;20059;-46
2023/07/10 07:33:19;;;;;;;14.48;8.70;;;;;;;21.20;nan;101418.16;4971966;28;20235;-46
2023/07/10 07:35:46;;;;;;;18.75;8.88;;;;;;;21.44;nan;101412.59;4972440;28;20066;-46
2023/07/10 07:38:13;;;;;;;12.52;7.68;;;;;;;21.59;nan;101415.94;4974753;28;20057;-46
2023/07/10 07:40:40;;;;;;;16.63;9.48;;;;;;;21.70;nan;101412.34;4971627;28;20051;-46
2023/07/10 07:43:07;;;;;;;12.65;8.18;;;;;;;21.98;nan;101415.41;4974660;28;20089;-48
2023/07/10 07:45:33;;;;;;;12.60;8.75;;;;;;;22.19;nan;101402.84;4974991;28;20054;-49
2023/07/10 07:48:00;;;;;;;13.00;7.35;;;;;;;22.32;nan;101401.84;4983917;28;20105;-46
2023/07/10 07:50:26;;;;;;;13.65;8.32;;;;;;;22.54;nan;101407.09;4988496;28;20066;-47
2023/07/10 07:52:54;;;;;;;11.20;7.57;;;;;;;22.51;nan;101401.97;4972818;28;20540;-46
2023/07/10 07:55:20;;;;;;;18.33;8.63;;;;;;;22.50;nan;101405.63;4974370;28;20050;-47
2023/07/10 07:57:47;;;;;;;24.33;8.73;;;;;;;22.75;nan;101392.72;4971537;28;20122;-47
2023/07/10 08:00:14;;;;;;;11.23;7.57;;;;;;;22.97;nan;101397.09;4974845;28;20527;-47
2023/07/10 08:02:40;;;;;;;16.10;9.40;;;;;;;23.17;nan;101387.28;4970528;28;20055;-47
2023/07/10 08:05:07;;;;;;;12.23;6.97;;;;;;;23.42;nan;101380.50;4973816;28;20054;-47
2023/07/10 08:07:45;;;;;;;15.07;8.10;;;;;;;23.37;nan;101372.00;4974060;28;20062;-46
2023/07/10 08:10:12;;;;;;;10.98;7.20;;;;;;;23.55;nan;101374.88;4975717;28;20053;-47
2023/07/10 08:12:38;;;;;;;12.73;7.10;;;;;;;23.82;nan;101379.63;4975663;28;20055;-47
2023/07/10 08:15:05;;;;;;;18.13;8.05;;;;;;;24.04;nan;101382.19;4971031;28;20061;-47
2023/07/10 08:17:32;;;;;;;14.90;8.57;;;;;;;24.08;nan;101381.75;4973391;28;20063;-47
2023/07/10 08:19:59;;;;;;;10.20;6.45;;;;;;;24.34;nan;101373.91;4973802;28;20055;-47
2023/07/10 08:22:25;;;;;;;16.25;8.32;;;;;;;24.19;nan;101375.34;4970048;28;20058;-47
2023/07/10 08:24:52;;;;;;;18.17;8.32;;;;;;;24.48;nan;101372.56;4968488;28;20046;-47
2023/07/10 08:27:19;;;;;;;12.20;6.97;;;;;;;24.58;nan;101372.59;4966891;28;20051;-46
2023/07/10 08:29:45;;;;;;;12.32;6.80;;;;;;;24.65;nan;101379.13;4979456;28;20113;-47
2023/07/10 08:32:12;;;;;;;9.88;7.82;;;;;;;24.61;nan;101377.69;4969813;28;20057;-47
2023/07/10 08:34:38;;;;;;;14.77;7.75;;;;;;;24.77;nan;101378.94;4971031;28;20387;-48
2023/07/10 08:37:05;;;;;;;12.48;7.05;;;;;;;25.05;nan;101386.06;4972184;28;20161;-47
2023/07/10 08:39:32;;;;;;;10.52;7.28;;;;;;;25.07;nan;101394.03;4973129;28;20371;-47
2023/07/10 08:42:04;;;;;;;12.27;7.18;;;;;;;25.06;nan;101403.13;4963242;28;20055;-47
2023/07/10 08:44:34;;;;;;;14.07;8.27;;;;;;;25.25;nan;101394.09;4967158;28;20200;-47
2023/07/10 08:47:15;;;;;;;;;;;;;;;25.18;nan;101395.69;4971629;28;20093;-47
2023/07/10 08:50:14;;;;;;;14.00;6.93;;;;;;;25.20;nan;101388.28;4961558;28;19930;-47
2023/07/10 08:52:45;;;;;;;12.85;6.88;;;;;;;25.48;nan;101380.19;4965475;28;20051;-47
2023/07/10 08:55:16;;;;;;;10.23;6.90;;;;;;;25.40;nan;101378.22;4969629;28;20054;-47
2023/07/10 08:57:53;;;;;;;11.43;6.68;;;;;;;25.76;nan;101379.13;4968445;28;20054;-47
2023/07/10 09:00:20;;;;;;;7.80;6.15;;;;;;;25.81;nan;101371.38;4969923;28;20046;-47
2023/07/10 09:03:31;;;;;;;11.05;6.70;;;;;;;25.77;nan;101361.84;4967934;28;20043;-47
2023/07/10 09:05:59;;;;;;;11.75;6.72;;;;;;;25.79;nan;101367.97;4954665;28;20054;-47
2023/07/10 09:08:28;;;;;;;12.75;7.20;;;;;;;26.04;nan;101365.53;4966879;28;20061;-47
2023/07/10 09:11:00;;;;;;;14.50;6.93;;;;;;;26.25;nan;101361.59;4968791;28;20474;-47
2023/07/10 09:14:05;;;;;;;11.55;7.18;;;;;;;26.49;nan;101364.47;4970771;28;20046;-47
2023/07/10 09:16:32;;;;;;;10.70;6.25;;;;;;;26.95;nan;101363.41;4932721;28;20058;-47
2023/07/10 09:19:05;;;;;;;9.75;5.78;;;;;;;27.30;nan;101356.97;4967732;28;20058;-47
2023/07/10 09:21:36;;;;;;;9.73;6.40;;;;;;;26.99;nan;101359.34;4971320;28;20051;-47
2023/07/10 09:24:04;;;;;;;10.75;5.93;;;;;;;27.53;nan;101359.91;4964530;28;20074;-47
2023/07/10 09:26:39;;;;;;;12.52;6.15;;;;;;;27.68;nan;101360.09;4961536;28;20117;-47
2023/07/10 09:29:15;;;;;;;9.25;6.40;;;;;;;28.21;nan;101366.06;4968443;28;20516;-47
2023/07/10 09:32:00;;;;;;;10.18;6.97;;;;;;;27.99;nan;101357.59;4970521;28;20050;-47
2023/07/10 09:34:32;;;;;;;14.93;5.75;;;;;;;28.42;nan;101357.38;4967608;28;20055;-47
2023/07/10 09:37:00;;;;;;;9.30;5.60;;;;;;;28.33;nan;101351.09;4967429;28;20057;-47
2023/07/10 09:39:31;;;;;;;16.30;7.28;;;;;;;28.38;nan;101356.03;4968336;28;20047;-47
2023/07/10 09:42:00;;;;;;;8.73;5.95;;;;;;;28.16;nan;101344.00;4971447;28;20050;-46
2023/07/10 09:44:39;;;;;;;14.13;6.65;;;;;;;28.54;nan;101344.25;4972152;28;20055;-47
2023/07/10 09:47:12;;;;;;;11.75;6.03;;;;;;;28.43;nan;101344.63;4963325;28;20054;-47
2023/07/10 09:49:52;;;;;;;9.48;6.20;;;;;;;28.35;nan;101340.06;4967245;28;20058;-47
2023/07/10 09:52:29;;;;;;;11.57;5.60;;;;;;;28.44;nan;101343.59;4981685;28;20351;-48
2023/07/10 09:55:11;;;;;;;9.93;6.88;;;;;;;28.55;nan;101348.69;4971019;28;20054;-46
2023/07/10 09:57:47;;;;;;;10.50;6.45;;;;;;;28.85;nan;101335.34;4963711;28;20392;-47
2023/07/10 10:00:19;;;;;;;9.75;6.40;;;;;;;29.18;nan;101336.09;4966019;28;20451;-47
2023/07/10 10:02:52;;;;;;;10.32;6.70;;;;;;;29.64;nan;101329.81;4973940;28;20523;-46
2023/07/10 10:05:19;;;;;;;9.20;6.38;;;;;;;29.90;nan;101328.59;4985798;28;20051;-46
2023/07/10 10:07:49;;;;;;;13.68;7.15;;;;;;;29.44;nan;101330.31;4974846;28;20512;-47
2023/07/10 10:10:29;;;;;;;14.27;8.75;;;;;;;29.25;nan;101330.78;4975895;28;20455;-46
2023/07/10 10:13:11;;;;;;;8.27;6.82;;;;;;;29.08;nan;101336.28;4975475;28;20047;-46
2023/07/10 10:16:02;;;;;;;13.15;7.13;;;;;;;29.26;nan;101336.03;4970681;28;20055;-47
2023/07/10 10:18:44;;;;;;;10.63;6.63;;;;;;;28.81;nan;101328.56;4975212;28;20078;-46
2023/07/10 10:21:15;;;;;;;10.50;6.68;;;;;;;29.33;nan;101335.28;4975193;28;20066;-46
2023/07/10 10:23:45;;;;;;;11.35;7.15;;;;;;;29.50;nan;101333.31;4967028;28;20400;-46
2023/07/10 10:26:19;;;;;;;10.00;7.55;;;;;;;28.72;nan;101323.16;4975126;28;20069;-46
2023/07/10 10:29:17;;;;;;;11.32;6.90;;;;;;;28.88;nan;101332.28;4971636;28;20118;-46
2023/07/10 10:31:53;;;;;;;11.57;7.30;;;;;;;28.71;nan;101329.63;4966675;28;20055;-46
2023/07/10 10:34:32;;;;;;;12.63;7.82;;;;;;;29.09;nan;101332.50;4970725;28;20081;-46
2023/07/10 10:36:59;;;;;;;11.73;7.35;;;;;;;29.29;nan;101326.66;4970728;28;20069;-46
2023/07/10 10:39:56;;;;;;;11.63;7.68;;;;;;;29.42;nan;101329.63;4972375;28;20058;-48
2023/07/10 10:42:33;;;;;;;14.07;7.75;;;;;;;30.18;nan;101318.81;4964749;28;20074;-46
2023/07/10 10:45:09;;;;;;;33.42;23.90;;;;;;;30.26;nan;101322.47;4973041;28;20074;-46
2023/07/10 10:47:55;;;;;;;13.60;8.48;;;;;;;29.09;nan;101331.66;4973449;28;20470;-46
2023/07/10 10:50:46;;;;;;;10.55;7.95;;;;;;;29.10;nan;101334.22;4963809;28;20514;-46
2023/07/10 10:53:30;;;;;;;12.23;8.27;;;;;;;28.82;nan;101322.09;4969201;28;20050;-46
2023/07/10 10:56:18;;;;;;;10.48;8.07;;;;;;;29.51;nan;101340.44;4970616;28;20149;-46
2023/07/10 10:59:00;;;;;;;11.32;8.48;;;;;;;29.62;nan;101331.84;4971749;28;20062;-46
2023/07/10 11:01:31;;;;;;;16.45;8.68;;;;;;;29.50;nan;101333.31;4967445;28;20065;-46
2023/07/10 11:04:09;;;;;;;12.00;8.15;;;;;;;29.89;nan;101348.72;4972633;28;20482;-47
2023/07/10 11:06:57;;;;;;;11.43;7.50;;;;;;;30.27;nan;101335.09;4969626;28;20051;-47
2023/07/10 11:09:52;;;;;;;15.18;8.93;;;;;;;30.63;nan;101337.09;4966479;28;20055;-47
2023/07/10 11:12:31;;;;;;;32.05;9.23;;;;;;;30.34;nan;101336.03;4963270;28;20411;-46
2023/07/10 11:15:04;;;;;;;18.85;8.20;;;;;;;30.54;nan;101342.66;4974194;28;20137;-46
2023/07/10 11:17:31;;;;;;;10.93;7.82;;;;;;;30.64;nan;101347.00;4971201;28;20065;-46
2023/07/10 11:19:59;;;;;;;12.48;7.70;;;;;;;31.83;nan;101342.13;4970209;28;20063;-46
2023/07/10 11:22:31;;;;;;;12.25;7.53;;;;;;;31.56;nan;101351.94;4972263;28;20456;-46
2023/07/10 11:25:01;;;;;;;11.68;7.75;;;;;;;31.44;nan;101348.84;4972834;28;20050;-46
2023/07/10 11:27:33;;;;;;;13.52;7.22;;;;;;;30.81;nan;101353.94;4970581;28;20120;-46
2023/07/10 11:30:08;;;;;;;14.00;7.93;;;;;;;31.11;nan;101357.50;4973135;28;20051;-46
2023/07/10 11:32:55;;;;;;;11.10;7.45;;;;;;;29.94;nan;101360.75;4973262;28;20485;-46
2023/07/10 11:35:22;;;;;;;13.23;7.88;;;;;;;30.75;nan;101354.72;4971915;28;20470;-46
2023/07/10 11:37:49;;;;;;;13.35;8.50;;;;;;;31.37;nan;101358.88;4969703;28;20064;-46
2023/07/10 11:40:28;;;;;;;13.20;8.32;;;;;;;31.15;nan;101352.50;4964087;28;20452;-46
2023/07/10 11:42:56;;;;;;;14.57;8.35;;;;;;;30.69;nan;101350.00;4969158;28;20059;-46
2023/07/10 11:45:31;;;;;;;15.35;8.65;;;;;;;29.34;nan;101351.44;4970361;28;20054;-46
2023/07/10 11:47:57;;;;;;;16.25;9.57;;;;;;;30.34;nan;101342.34;4971881;28;20069;-47
2023/07/10 11:50:27;;;;;;;12.20;8.10;;;;;;;30.31;nan;101355.50;4972624;28;20046;-48